CheckWX is a tool to help pilots better visualize weather data.  It is not intended as a substitute for an official pre-flight weather briefing.

02:55:19 UTC

KOXR METAR
Oxnard Airport
Oxnard, California, USA
Current

1 hour ago

KOXR 230151Z 27009KT 10SM CLR 21/18 A2985 RMK AO2 SLP108 T02110183
Observed
Sep-23 @ 01:51 UTC
Wind
  • 270° at 9 KTS
Visibility
10 SM
Flight Rules
VFR
Cloud Levels
  • Clear skies
Temperature
21°C / 70°F
Dewpoint
18°C / 64°F
Humidity
83%
Altimeter
29.85" Hg
Pressure
1010.82 hPa
Previous

2 hours ago

KOXR 230051Z 28005KT 10SM CLR 24/17 A2985 RMK AO2 SLP107 T02440172
Observed
Sep-23 @ 00:51 UTC
Wind
  • 280° at 5 KTS
Visibility
10 SM
Flight Rules
VFR
Cloud Levels
  • Clear skies
Temperature
24°C / 75°F
Dewpoint
17°C / 63°F
Humidity
65%
Altimeter
29.85" Hg
Pressure
1010.82 hPa
Previous

3 hours ago

KOXR 222351Z 26007KT 10SM CLR 25/17 A2985 RMK AO2 SLP108 T02500167 10272 20250 55004
Observed
Sep-22 @ 23:51 UTC
Wind
  • 260° at 7 KTS
Visibility
10 SM
Flight Rules
VFR
Cloud Levels
  • Clear skies
Temperature
25°C / 77°F
Dewpoint
17°C / 63°F
Humidity
61%
Altimeter
29.85" Hg
Pressure
1010.82 hPa